Santa Lucia, Argentina
Current Conditions -  °F | °C
As of 7:00 AM on Friday 31 Oct 2014 (Local Time) from SAME Reporting Station
Clear Clear  
Wind Chill: 57°   Ceiling: Unl
Heat Index: 57°   Visibility: 6mi
Dew Point: 21°   Wind: 9mph
Humidity: 25%   Direction: 160°SSE
Pressure: 30.06"   Gusts: NA
Location:  31.53°S, 68.48°W
Report Text: SAME 311000Z 16008KT CAVOK 14/M06 Q1018
Loading
Personal Weather Stations






























Interactive Weather Map
Tropical Storm Tracking
New forecast layout! Learn more

10-Day Weather Forecast

Advertisements
Track Severe Weather on mobile